Arak, Arak Airport (OIHR)

NameArak Airport
CityArak
CountryIran (Islamic Republic of)
ICAOOIHR
IATAAJK
Altitude1658 m
CoordinatesGoogle Map
Live Air TrafficLiveATC.net
METAROIHR 160800Z 32004KT 7000 FEW035 19/02 Q1026
2018-10-16 08:00:00 Wind: Northwest (320°) 2.06 m/s - Visibility: 7000 m - Temperature: 19 °C - Dew point: 2 °C - Humidity: 32.3% - Pressure: 1026 hPa
Statistics

The table below shows the detailed information of all flights to/from Arak, Arak Airport (OIHR).